The World — C6RW4 — position and weather

sailwx.info

Track history (hours):
 
Tides and Currents Weather Stations Pressure Air Temp Water Temp Dewpoint Dewpoint Depression Visibility Wind Speed Wind Dir Waves Ship Positions

The World

Operator: Bergshav-Norway

Last reported at 2019-Mar-24 23:26 UTC. Time now 2019-Mar-26 00:10 UTC.
Position N 32°57' E 034°32'.

Length 196 m; draft 7.1 m.

Type: Ship. MMSI: 311213000.

Date/timePositionNaut miles runAvg speedWind from/ knotsBaromVisibWave heightAir tempDewpointWater temp
2019-Mar-24 23:26N 32°57' E 034°32'613.6
2019-Mar-24 23:01N 32°56' E 034°38'714.8
2019-Mar-24 22:30N 32°55' E 034°47'714.1
2019-Mar-24 21:59N 32°53' E 034°56'  
2019-Mar-22 05:12N 32°51' E 035°00'1 5.7
2019-Mar-22 04:59N 32°52' E 034°59'3 5.6
2019-Mar-22 04:29N 32°53' E 034°55'4 8.8
2019-Mar-22 03:59N 32°52' E 034°50'5 9.8
2019-Mar-22 03:30N 32°48' E 034°48'5 9.9
2019-Mar-22 03:00N 32°43' E 034°46'5 9.8
2019-Mar-22 02:30N 32°39' E 034°45'5 9.8
2019-Mar-22 02:00N 32°34' E 034°43'510.4
2019-Mar-22 01:30N 32°29' E 034°41'510.5
2019-Mar-22 01:00N 32°24' E 034°40'710.4
2019-Mar-22 00:22N 32°17' E 034°37'4 9.9
2019-Mar-22 00:00N 32°14' E 034°36'5 9.6
2019-Mar-21 23:29N 32°09' E 034°34'47 1.0
2019-Mar-20 00:34N 32°04' E 033°39'2 6.7
2019-Mar-20 00:17N 32°03' E 033°37'14 7.0
2019-Mar-19 22:18N 31°56' E 033°23'29 7.4
2019-Mar-19 18:20N 31°40' E 032°54'2 7.5
2019-Mar-19 18:01N 31°38' E 032°53'6 7.3
2019-Mar-19 17:09N 31°32' E 032°49'2 7.5
2019-Mar-19 16:57N 31°31' E 032°49'24 7.3
2019-Mar-19 13:38N 31°22' E 032°23'214.7
2019-Mar-19 13:30N 31°20' E 032°23'1810.5
2019-Mar-19 11:47N 31°02' E 032°19'3 9.6
2019-Mar-19 11:30N 30°60' E 032°19'5 9.4
2019-Mar-19 11:00N 30°55' E 032°19'5 9.3
2019-Mar-19 10:25N 30°50' E 032°19'  
Track history (hours):
 
Tides and Currents Weather Stations Pressure Air Temp Water Temp Dewpoint Dewpoint Depression Visibility Wind Speed Wind Dir Waves Ship Positions

The World

Operator: Bergshav-Norway

Last reported at 2019-Mar-24 23:26 UTC. Time now 2019-Mar-26 00:10 UTC.
Position N 32°57' E 034°32'.

Length 196 m; draft 7.1 m.

Type: Ship. MMSI: 311213000.

Date/timePositionNaut miles runAvg speedWind from/ knotsBaromVisibWave heightAir tempDewpointWater temp
2019-Mar-24 23:26N 32°57' E 034°32'613.6
2019-Mar-24 23:01N 32°56' E 034°38'714.8
2019-Mar-24 22:30N 32°55' E 034°47'714.1
2019-Mar-24 21:59N 32°53' E 034°56'  
2019-Mar-22 05:12N 32°51' E 035°00'1 5.7
2019-Mar-22 04:59N 32°52' E 034°59'3 5.6
2019-Mar-22 04:29N 32°53' E 034°55'4 8.8
2019-Mar-22 03:59N 32°52' E 034°50'5 9.8
2019-Mar-22 03:30N 32°48' E 034°48'5 9.9
2019-Mar-22 03:00N 32°43' E 034°46'5 9.8
2019-Mar-22 02:30N 32°39' E 034°45'5 9.8
2019-Mar-22 02:00N 32°34' E 034°43'510.4
2019-Mar-22 01:30N 32°29' E 034°41'510.5
2019-Mar-22 01:00N 32°24' E 034°40'710.4
2019-Mar-22 00:22N 32°17' E 034°37'4 9.9
2019-Mar-22 00:00N 32°14' E 034°36'5 9.6
2019-Mar-21 23:29N 32°09' E 034°34'47 1.0
2019-Mar-20 00:34N 32°04' E 033°39'2 6.7
2019-Mar-20 00:17N 32°03' E 033°37'14 7.0
2019-Mar-19 22:18N 31°56' E 033°23'29 7.4
2019-Mar-19 18:20N 31°40' E 032°54'2 7.5
2019-Mar-19 18:01N 31°38' E 032°53'6 7.3
2019-Mar-19 17:09N 31°32' E 032°49'2 7.5
2019-Mar-19 16:57N 31°31' E 032°49'24 7.3
2019-Mar-19 13:38N 31°22' E 032°23'214.7
2019-Mar-19 13:30N 31°20' E 032°23'1810.5
2019-Mar-19 11:47N 31°02' E 032°19'3 9.6
2019-Mar-19 11:30N 30°60' E 032°19'5 9.4
2019-Mar-19 11:00N 30°55' E 032°19'5 9.3
2019-Mar-19 10:25N 30°50' E 032°19'  

Dump ship's entire track history